Aeroboteco Virtual Airlines! Uma nuvem a frente.



 INFORMAÇÕES METEOROLÓGICAS
METAR FOR MTPP
ADDS - METARS form results

(0255 UTC 26 May 2019)
Data provider http://aviationweather.gov/metar/data/
 
METAR text: MTPP 260159Z AUTO 27011KT 250V320 9000 ////// 25/23 Q1014 A2997 NOSIG
Conditions at: MTPP (PORT-AU-PRINCE , HT) observed 0159 UTC 26 May 2019
Temperature: 25.0°C (77°F)
Dewpoint: 23.0°C (73°F) [RH = 89%]
Pressure (altimeter): 29.94 inches Hg (1014.0 mb)
Winds: from the W (270 degrees) at 13 MPH (11 knots; 5.7 m/s)
Visibility: 6 miles ( 9 km)
Ceiling: unknown
Clouds: missing
Weather: no significant weather observed at this time

 MAPA DO AEROPORTO

 INFORMAÇÕES DA PISTA
Pista 10 Tamanho da pista 9974 ft Largura da pista 141 ft
Elevação da pista 79 ft Ranhura da pista 0 ft Proa da pista 87
Pista 28 Tamanho da pista 9974 ft Largura da pista 141 ft
Elevação da pista 122 ft Ranhura da pista 0 ft Proa da pista 267

 FREQUÊNCIAS DO AEROPORTO
Tipo APP Nome APP Frequência 119.8 MHZ
Tipo TWR Nome TWR Frequência 118.3 MHZ

 AUXÍLIOS DE NAVEGAÇÃO PRÓXIMOS AO AEROPORTO
Tipo NDB Nome Port Au Prince Frequência 270 KHZ
Tipo VOR-DME Nome Port Au Prince Frequência 115300 KHZ